createdAt,value
2022-07-25T00:00:13.052Z,34.05
2022-07-25T00:01:15.179Z,34.26
2022-07-25T00:02:17.593Z,34.39
2022-07-25T00:03:19.432Z,34.54
2022-07-25T00:04:21.650Z,34.24
2022-07-25T00:05:24.359Z,34.14
2022-07-25T00:06:26.328Z,34.62
2022-07-25T00:07:28.724Z,34.30
2022-07-25T00:08:30.589Z,34.20
2022-07-25T00:09:32.500Z,34.57
2022-07-25T00:10:34.305Z,34.35
2022-07-25T00:11:36.223Z,34.31
2022-07-25T00:12:38.795Z,34.37
2022-07-25T00:13:40.587Z,34.30
2022-07-25T00:14:42.369Z,34.61
2022-07-25T00:15:44.413Z,34.64
2022-07-25T00:16:46.235Z,34.56
2022-07-25T00:17:48.184Z,34.33
2022-07-25T00:18:50.094Z,34.89
2022-07-25T00:19:52.040Z,34.70
2022-07-25T00:20:53.885Z,34.85
2022-07-25T00:21:55.690Z,34.88
2022-07-25T00:22:57.451Z,34.54
2022-07-25T00:23:59.271Z,34.76
2022-07-25T00:25:01.098Z,34.64
2022-07-25T00:26:02.890Z,34.88
2022-07-25T00:27:04.899Z,34.90
2022-07-25T00:28:06.808Z,34.86
2022-07-25T00:29:08.599Z,34.97
2022-07-25T00:30:10.867Z,35.15
2022-07-25T00:31:12.733Z,34.63
2022-07-25T00:32:14.691Z,34.84
2022-07-25T00:33:16.846Z,34.97
2022-07-25T00:34:18.682Z,34.87
2022-07-25T00:35:20.506Z,34.95
2022-07-25T00:36:22.257Z,34.96
2022-07-25T00:37:24.095Z,35.01
2022-07-25T00:38:25.844Z,35.14
2022-07-25T00:39:27.722Z,34.92
2022-07-25T00:40:29.549Z,35.01
2022-07-25T00:41:31.574Z,35.43
2022-07-25T00:42:33.454Z,34.99
2022-07-25T00:43:35.381Z,35.29
2022-07-25T00:44:37.780Z,35.21
2022-07-25T00:45:39.621Z,34.97
2022-07-25T00:46:41.604Z,34.92
2022-07-25T00:47:43.399Z,35.33
2022-07-25T00:48:45.226Z,34.94
2022-07-25T00:49:47.215Z,35.35
2022-07-25T00:50:49.225Z,35.38
2022-07-25T00:51:52.316Z,35.20
2022-07-25T00:52:54.894Z,35.00
2022-07-25T00:53:57.744Z,35.14
2022-07-25T00:54:59.837Z,35.32
2022-07-25T00:56:02.036Z,35.16
2022-07-25T00:57:04.206Z,35.09
2022-07-25T00:58:06.043Z,35.23
2022-07-25T00:59:09.160Z,35.47
2022-07-25T01:00:15.344Z,35.35
2022-07-25T01:01:17.607Z,35.18
2022-07-25T01:02:19.537Z,35.37
2022-07-25T01:03:21.589Z,35.10
2022-07-25T01:04:23.598Z,35.23
2022-07-25T01:05:25.620Z,35.51
2022-07-25T01:06:27.610Z,35.39
2022-07-25T01:07:29.963Z,35.40
2022-07-25T01:08:32.516Z,35.50
2022-07-25T01:09:34.431Z,35.28
2022-07-25T01:10:36.773Z,35.32
2022-07-25T01:11:39.305Z,35.22
2022-07-25T01:12:47.451Z,35.24
2022-07-25T01:13:49.304Z,35.65
2022-07-25T01:14:51.155Z,35.66
2022-07-25T01:15:53.079Z,35.47
2022-07-25T01:16:55.244Z,35.43
2022-07-25T01:17:57.588Z,35.32
2022-07-25T01:18:59.419Z,35.10
2022-07-25T01:20:01.179Z,35.65
2022-07-25T01:21:03.236Z,35.59
2022-07-25T01:22:05.287Z,35.58
2022-07-25T01:23:07.079Z,35.41
2022-07-25T01:24:10.368Z,35.30
2022-07-25T01:25:14.580Z,35.68
2022-07-25T01:26:16.401Z,35.15
2022-07-25T01:27:18.219Z,35.15
2022-07-25T01:28:20.240Z,35.36
2022-07-25T01:29:22.426Z,35.31
2022-07-25T01:30:25.255Z,35.25
2022-07-25T01:31:27.266Z,35.58
2022-07-25T01:32:29.140Z,35.24
2022-07-25T01:33:30.954Z,35.38
2022-07-25T01:34:32.768Z,35.22
2022-07-25T01:35:34.673Z,35.29
2022-07-25T01:36:36.471Z,35.29
2022-07-25T01:37:38.826Z,35.75
2022-07-25T01:38:40.604Z,35.71
2022-07-25T01:39:42.535Z,35.67
2022-07-25T01:40:45.874Z,35.86
2022-07-25T01:41:47.668Z,35.25
2022-07-25T01:42:49.476Z,35.55
2022-07-25T01:43:51.401Z,35.29
2022-07-25T01:44:53.361Z,35.25
2022-07-25T01:45:55.262Z,35.57
2022-07-25T01:46:57.292Z,35.55
2022-07-25T01:47:59.329Z,35.64
2022-07-25T01:49:01.225Z,35.49
2022-07-25T01:50:04.080Z,35.57
2022-07-25T01:51:06.119Z,36.07
2022-07-25T01:52:08.698Z,35.55
2022-07-25T01:53:10.475Z,35.80
2022-07-25T01:54:12.267Z,35.48
2022-07-25T01:55:14.223Z,35.63
2022-07-25T01:56:16.135Z,35.60
2022-07-25T01:57:18.010Z,35.81
2022-07-25T01:58:19.976Z,35.62
2022-07-25T01:59:23.294Z,35.80
2022-07-25T02:00:25.102Z,36.07
2022-07-25T02:01:27.089Z,35.75
2022-07-25T02:02:28.910Z,36.04
2022-07-25T02:03:30.683Z,35.72
2022-07-25T02:04:32.838Z,35.55
2022-07-25T02:05:34.709Z,35.64
2022-07-25T02:06:36.614Z,35.84
2022-07-25T02:07:38.535Z,35.64
2022-07-25T02:08:40.324Z,35.31
2022-07-25T02:09:42.205Z,35.69
2022-07-25T02:10:44.064Z,35.51
2022-07-25T02:11:46.287Z,35.79
2022-07-25T02:12:48.185Z,35.64
2022-07-25T02:13:50.025Z,35.65
2022-07-25T02:14:51.973Z,35.59
2022-07-25T02:15:54.603Z,35.52
2022-07-25T02:16:56.457Z,35.92
2022-07-25T02:17:58.635Z,35.49
2022-07-25T02:19:00.576Z,35.89
2022-07-25T02:20:02.573Z,35.74
2022-07-25T02:21:07.338Z,36.01
2022-07-25T02:22:16.472Z,35.68
2022-07-25T02:23:18.331Z,35.58
2022-07-25T02:24:20.477Z,35.84
2022-07-25T02:25:22.790Z,35.50
2022-07-25T02:26:24.637Z,35.71
2022-07-25T02:27:26.496Z,35.88
2022-07-25T02:28:28.873Z,35.87
2022-07-25T02:29:30.971Z,36.04
2022-07-25T02:30:33.043Z,36.08
2022-07-25T02:31:35.027Z,35.83
2022-07-25T02:32:36.859Z,35.84
2022-07-25T02:33:38.894Z,35.96
2022-07-25T02:34:40.693Z,36.28
2022-07-25T02:35:42.497Z,36.06
2022-07-25T02:36:45.913Z,35.77
2022-07-25T02:37:48.321Z,36.04
2022-07-25T02:38:50.212Z,36.04
2022-07-25T02:39:52.012Z,35.86
2022-07-25T02:40:53.984Z,36.14
2022-07-25T02:41:55.794Z,36.10
2022-07-25T02:42:57.608Z,35.66
2022-07-25T02:43:59.435Z,36.20
2022-07-25T02:45:02.081Z,35.88
2022-07-25T02:46:03.991Z,36.27
2022-07-25T02:47:06.091Z,35.84
2022-07-25T02:48:07.887Z,36.06
2022-07-25T02:49:09.705Z,36.17
2022-07-25T02:50:14.740Z,35.96
2022-07-25T02:51:18.648Z,36.02
2022-07-25T02:52:20.460Z,36.18
2022-07-25T02:53:40.280Z,36.28
2022-07-25T02:54:44.182Z,36.05
2022-07-25T02:55:46.483Z,36.04
2022-07-25T02:56:48.273Z,35.85
2022-07-25T02:57:50.122Z,36.19
2022-07-25T02:58:51.927Z,35.94
2022-07-25T02:59:53.722Z,35.88
2022-07-25T03:00:55.498Z,36.35
2022-07-25T03:01:57.510Z,35.85
2022-07-25T03:02:59.511Z,35.76
2022-07-25T03:04:01.435Z,36.20
2022-07-25T03:05:06.672Z,36.31
2022-07-25T03:06:08.528Z,35.91
2022-07-25T03:07:10.455Z,35.85
2022-07-25T03:08:12.261Z,35.93
2022-07-25T03:09:14.232Z,35.84
2022-07-25T03:10:16.060Z,35.74
2022-07-25T03:11:18.018Z,36.00
2022-07-25T03:12:19.753Z,35.95
2022-07-25T03:13:21.716Z,35.77
2022-07-25T03:14:23.559Z,35.87
2022-07-25T03:15:25.411Z,35.56
2022-07-25T03:16:27.420Z,36.00
2022-07-25T03:17:29.569Z,35.85
2022-07-25T03:18:31.400Z,35.88
2022-07-25T03:19:33.242Z,36.08
2022-07-25T03:20:35.052Z,35.83
2022-07-25T03:21:39.812Z,35.78
2022-07-25T03:22:41.629Z,35.97
2022-07-25T03:23:43.471Z,36.10
2022-07-25T03:24:45.545Z,36.04
2022-07-25T03:25:47.430Z,35.74
2022-07-25T03:26:49.259Z,35.79
2022-07-25T03:27:51.229Z,35.86
2022-07-25T03:28:53.004Z,35.97
2022-07-25T03:29:54.902Z,35.70
2022-07-25T03:30:56.746Z,36.08
2022-07-25T03:31:59.590Z,35.91
2022-07-25T03:33:01.404Z,35.68
2022-07-25T03:34:03.396Z,35.97
2022-07-25T03:35:06.235Z,35.51
2022-07-25T03:36:08.376Z,35.69
2022-07-25T03:37:10.171Z,35.72
2022-07-25T03:38:11.992Z,35.71
2022-07-25T03:39:14.618Z,35.79
2022-07-25T03:40:16.496Z,35.74
2022-07-25T03:41:18.578Z,35.40
2022-07-25T03:42:24.949Z,35.82
2022-07-25T03:43:28.311Z,35.79
2022-07-25T03:44:30.103Z,35.58
2022-07-25T03:45:32.008Z,35.72
2022-07-25T03:46:34.056Z,35.58
2022-07-25T03:47:35.900Z,35.43
2022-07-25T03:48:37.994Z,35.66
2022-07-25T03:49:39.989Z,35.63
2022-07-25T03:50:41.768Z,35.64
2022-07-25T03:51:43.874Z,35.74
2022-07-25T03:52:45.622Z,35.83
2022-07-25T03:54:02.386Z,35.72
2022-07-25T03:55:07.365Z,35.63
2022-07-25T03:56:09.123Z,35.53
2022-07-25T03:57:12.471Z,35.58
2022-07-25T03:58:14.469Z,35.41
2022-07-25T03:59:19.428Z,35.40
2022-07-25T04:00:21.455Z,35.47
2022-07-25T04:01:23.312Z,35.57
2022-07-25T04:02:28.375Z,35.27
2022-07-25T04:03:30.182Z,35.78
2022-07-25T04:04:32.069Z,35.92
2022-07-25T04:05:33.903Z,35.47
2022-07-25T04:06:36.483Z,35.29
2022-07-25T04:07:38.885Z,35.84
2022-07-25T04:08:40.646Z,35.88
2022-07-25T04:09:42.483Z,35.45
2022-07-25T04:10:44.448Z,35.36
2022-07-25T04:11:46.219Z,35.54
2022-07-25T04:12:48.011Z,35.59
2022-07-25T04:13:50.390Z,35.42
2022-07-25T04:14:52.556Z,35.74
2022-07-25T04:15:54.288Z,35.81
2022-07-25T04:16:56.432Z,35.57
2022-07-25T04:17:58.724Z,35.51
2022-07-25T04:19:01.243Z,35.49
2022-07-25T04:20:05.561Z,35.62
2022-07-25T04:21:09.365Z,35.38
2022-07-25T04:22:11.462Z,35.63
2022-07-25T04:23:13.564Z,35.36
2022-07-25T04:24:16.145Z,35.20
2022-07-25T04:25:18.094Z,35.46
2022-07-25T04:26:20.288Z,35.55
2022-07-25T04:27:22.404Z,35.72
2022-07-25T04:28:28.039Z,35.44
2022-07-25T04:29:29.952Z,35.78
2022-07-25T04:30:31.756Z,35.34
2022-07-25T04:31:33.903Z,35.69
2022-07-25T04:32:35.855Z,35.73
2022-07-25T04:33:38.604Z,36.09
2022-07-25T04:34:40.400Z,35.56
2022-07-25T04:35:42.898Z,36.08
2022-07-25T04:36:44.807Z,35.84
2022-07-25T04:37:46.686Z,35.60
2022-07-25T04:38:48.614Z,35.79
2022-07-25T04:39:50.340Z,35.92
2022-07-25T04:40:52.115Z,35.93
2022-07-25T04:41:54.003Z,36.21
2022-07-25T04:42:55.774Z,36.08
2022-07-25T04:43:57.704Z,35.58
2022-07-25T04:44:59.632Z,35.97
2022-07-25T04:46:02.105Z,36.17
2022-07-25T04:47:04.721Z,36.17
2022-07-25T04:48:06.963Z,35.88
2022-07-25T04:49:09.041Z,36.33
2022-07-25T04:50:10.915Z,36.18
2022-07-25T04:51:12.760Z,36.08
2022-07-25T04:52:14.980Z,35.96
2022-07-25T04:53:16.963Z,36.04
2022-07-25T04:54:18.773Z,35.88
2022-07-25T04:55:20.836Z,36.19
2022-07-25T04:56:22.644Z,36.17
2022-07-25T04:57:24.633Z,36.08
2022-07-25T04:58:26.456Z,36.24
2022-07-25T04:59:28.237Z,36.02
2022-07-25T05:00:30.053Z,36.40
2022-07-25T05:01:31.940Z,36.13
2022-07-25T05:02:34.265Z,36.16
2022-07-25T05:03:36.275Z,36.63
2022-07-25T05:04:43.442Z,36.28
2022-07-25T05:05:47.118Z,36.20
2022-07-25T05:06:49.031Z,36.42
2022-07-25T05:07:51.496Z,36.12
2022-07-25T05:08:53.341Z,36.50
2022-07-25T05:09:55.234Z,36.09
2022-07-25T05:10:57.008Z,35.81
2022-07-25T05:11:59.024Z,36.00
2022-07-25T05:13:01.186Z,36.18
2022-07-25T05:14:03.334Z,36.19
2022-07-25T05:15:06.420Z,36.08
2022-07-25T05:16:08.497Z,35.99
2022-07-25T05:17:11.360Z,36.51
2022-07-25T05:18:13.289Z,35.88
2022-07-25T05:19:15.413Z,35.64
2022-07-25T05:20:17.376Z,35.75
2022-07-25T05:21:19.127Z,35.71
2022-07-25T05:22:25.119Z,35.55
2022-07-25T05:23:30.116Z,35.79
2022-07-25T05:24:36.226Z,35.40
2022-07-25T05:25:38.047Z,35.62
2022-07-25T05:26:39.976Z,35.61
2022-07-25T05:27:42.089Z,35.38
2022-07-25T05:28:44.014Z,35.49
2022-07-25T05:29:45.871Z,35.37
2022-07-25T05:30:47.846Z,35.10
2022-07-25T05:31:49.784Z,35.01
2022-07-25T05:32:51.681Z,35.38
2022-07-25T05:33:53.701Z,35.11
2022-07-25T05:34:55.536Z,34.89
2022-07-25T05:35:57.333Z,34.94
2022-07-25T05:36:59.114Z,34.61
2022-07-25T05:38:00.892Z,35.00
2022-07-25T05:39:02.776Z,34.54
2022-07-25T05:40:06.735Z,34.45
2022-07-25T05:41:08.673Z,34.81
2022-07-25T05:42:10.515Z,34.60
2022-07-25T05:43:12.299Z,34.73
2022-07-25T05:44:14.075Z,34.55
2022-07-25T05:45:16.053Z,34.74
2022-07-25T05:46:17.912Z,34.55
2022-07-25T05:47:19.706Z,34.68
2022-07-25T05:48:21.826Z,34.71
2022-07-25T05:49:23.607Z,34.37
2022-07-25T05:50:25.575Z,34.52
2022-07-25T05:51:27.773Z,34.25
2022-07-25T05:52:29.605Z,34.35
2022-07-25T05:53:31.412Z,34.40
2022-07-25T05:54:34.717Z,34.27
2022-07-25T05:55:40.895Z,34.82
2022-07-25T05:56:43.189Z,34.26
2022-07-25T05:57:45.097Z,34.32
2022-07-25T05:58:46.937Z,34.42
2022-07-25T05:59:48.829Z,34.14
2022-07-25T06:00:53.508Z,34.40
2022-07-25T06:01:55.526Z,34.27
2022-07-25T06:03:00.895Z,34.27
2022-07-25T06:04:03.051Z,33.92
2022-07-25T06:05:05.296Z,34.20
2022-07-25T06:06:08.953Z,33.94
2022-07-25T06:07:10.980Z,34.20
2022-07-25T06:08:18.780Z,33.93
2022-07-25T06:09:22.122Z,33.75
2022-07-25T06:10:24.484Z,33.86
2022-07-25T06:11:31.005Z,33.85
2022-07-25T06:12:33.778Z,34.00
2022-07-25T06:13:38.555Z,34.00
2022-07-25T06:14:40.348Z,33.86
2022-07-25T06:15:42.267Z,34.08
2022-07-25T06:16:44.202Z,33.88
2022-07-25T06:17:46.202Z,34.04
2022-07-25T06:18:48.008Z,33.78
2022-07-25T06:19:49.932Z,33.74
2022-07-25T06:20:52.259Z,33.74
2022-07-25T06:21:54.010Z,33.65
2022-07-25T06:22:55.938Z,33.72
2022-07-25T06:23:57.832Z,33.55
2022-07-25T06:24:59.615Z,33.68
2022-07-25T06:26:01.779Z,33.85
2022-07-25T06:27:03.732Z,33.66
2022-07-25T06:28:05.679Z,33.88
2022-07-25T06:29:12.838Z,33.85
2022-07-25T06:30:20.081Z,33.81
2022-07-25T06:31:22.475Z,33.70
2022-07-25T06:32:24.585Z,33.67
2022-07-25T06:33:26.377Z,33.65
2022-07-25T06:34:28.993Z,33.80
2022-07-25T06:35:30.936Z,33.76
2022-07-25T06:36:33.170Z,33.29
2022-07-25T06:37:37.923Z,33.49
2022-07-25T06:38:39.789Z,33.32
2022-07-25T06:39:45.674Z,33.79
2022-07-25T06:40:48.094Z,33.56
2022-07-25T06:41:50.174Z,33.44
2022-07-25T06:42:52.821Z,33.39
2022-07-25T06:43:54.841Z,33.42
2022-07-25T06:44:56.800Z,33.54
2022-07-25T06:45:58.651Z,33.51
2022-07-25T06:47:02.504Z,33.82
2022-07-25T06:48:04.713Z,33.91
2022-07-25T06:49:07.299Z,33.41
2022-07-25T06:50:13.285Z,33.34
2022-07-25T06:51:15.235Z,33.41
2022-07-25T06:52:17.122Z,33.72
2022-07-25T06:53:18.959Z,33.26
2022-07-25T06:54:20.946Z,33.46
2022-07-25T06:55:22.763Z,33.49
2022-07-25T06:56:24.635Z,33.17
2022-07-25T06:57:26.487Z,33.65
2022-07-25T06:58:29.052Z,33.70
2022-07-25T06:59:31.004Z,33.65
2022-07-25T07:00:32.865Z,33.56
2022-07-25T07:01:34.918Z,33.46
2022-07-25T07:02:49.012Z,33.50
2022-07-25T07:03:50.964Z,33.17
2022-07-25T07:04:53.375Z,33.39
2022-07-25T07:05:55.260Z,33.61
2022-07-25T07:06:57.301Z,33.63
2022-07-25T07:08:00.161Z,33.32
2022-07-25T07:09:02.043Z,33.44
2022-07-25T07:10:04.501Z,33.71
2022-07-25T07:11:07.509Z,33.34
2022-07-25T07:12:10.131Z,33.27
2022-07-25T07:13:15.885Z,33.53
2022-07-25T07:14:20.564Z,33.71
2022-07-25T07:15:22.415Z,32.82
2022-07-25T07:16:24.472Z,33.01
2022-07-25T07:17:26.352Z,33.46
2022-07-25T07:18:28.179Z,33.26
2022-07-25T07:19:30.315Z,33.10
2022-07-25T07:20:32.562Z,33.17
2022-07-25T07:21:34.350Z,33.34
2022-07-25T07:22:49.622Z,33.52
2022-07-25T07:23:51.911Z,33.07
2022-07-25T07:24:55.832Z,33.06
2022-07-25T07:25:59.006Z,33.12
2022-07-25T07:27:00.786Z,33.09
2022-07-25T07:28:02.869Z,33.08
2022-07-25T07:29:04.891Z,33.33
2022-07-25T07:30:07.575Z,33.48
2022-07-25T07:31:16.921Z,33.27
2022-07-25T07:32:19.482Z,33.16
2022-07-25T07:33:21.399Z,33.18
2022-07-25T07:34:23.150Z,33.09
2022-07-25T07:35:25.543Z,33.01
2022-07-25T07:36:29.524Z,33.35
2022-07-25T07:37:36.545Z,33.13
2022-07-25T07:38:40.659Z,33.04
2022-07-25T07:39:42.552Z,32.95
2022-07-25T07:40:44.424Z,33.04
2022-07-25T07:41:46.228Z,33.12
2022-07-25T07:42:49.526Z,33.26
2022-07-25T07:43:51.303Z,33.12
2022-07-25T07:44:53.083Z,33.32
2022-07-25T07:45:56.142Z,33.21
2022-07-25T07:47:01.721Z,33.39
2022-07-25T07:48:03.716Z,32.96
2022-07-25T07:49:05.946Z,32.91
2022-07-25T07:50:09.724Z,32.83
2022-07-25T07:51:11.484Z,33.16
2022-07-25T07:52:13.271Z,32.96
2022-07-25T07:53:15.115Z,33.22
2022-07-25T07:54:35.541Z,33.02
2022-07-25T07:55:48.908Z,33.17
2022-07-25T07:56:50.877Z,32.96
2022-07-25T07:57:52.915Z,32.87
2022-07-25T07:58:54.675Z,32.99
2022-07-25T07:59:56.439Z,32.73
2022-07-25T08:00:58.264Z,33.12
2022-07-25T08:02:00.364Z,33.03
2022-07-25T08:03:03.594Z,32.92
2022-07-25T08:04:05.720Z,33.04
2022-07-25T08:05:08.310Z,33.22
2022-07-25T08:06:10.077Z,33.03
2022-07-25T08:07:11.821Z,33.18
2022-07-25T08:08:15.310Z,32.96
2022-07-25T08:09:17.082Z,33.10
2022-07-25T08:10:23.983Z,33.01
2022-07-25T08:11:26.569Z,32.76
2022-07-25T08:12:28.401Z,32.97
2022-07-25T08:13:34.046Z,33.13
2022-07-25T08:14:35.974Z,32.85
2022-07-25T08:15:37.794Z,33.04
2022-07-25T08:16:39.882Z,32.58
2022-07-25T08:17:42.069Z,33.00
2022-07-25T08:18:44.818Z,32.83
2022-07-25T08:19:46.641Z,33.08
2022-07-25T08:20:49.731Z,32.83
2022-07-25T08:21:51.520Z,32.88
2022-07-25T08:22:56.629Z,32.96
2022-07-25T08:23:58.874Z,32.73
2022-07-25T08:25:00.904Z,32.82
2022-07-25T08:26:04.034Z,33.13
2022-07-25T08:27:05.858Z,33.12
2022-07-25T08:28:08.010Z,33.11
2022-07-25T08:29:19.061Z,33.20
2022-07-25T08:30:22.030Z,33.10
2022-07-25T08:31:24.287Z,32.84
2022-07-25T08:32:26.212Z,32.71
2022-07-25T08:33:28.550Z,33.08
2022-07-25T08:34:30.322Z,33.05
2022-07-25T08:35:34.289Z,32.86
2022-07-25T08:36:36.095Z,33.04
2022-07-25T08:37:38.089Z,32.85
2022-07-25T08:38:40.135Z,32.77
2022-07-25T08:39:42.439Z,33.21
2022-07-25T08:40:44.555Z,33.08
2022-07-25T08:41:47.080Z,33.27
2022-07-25T08:42:50.101Z,32.88
2022-07-25T08:43:52.488Z,32.85
2022-07-25T08:45:00.389Z,32.95
2022-07-25T08:46:05.086Z,32.89
2022-07-25T08:47:10.396Z,32.89
2022-07-25T08:48:17.926Z,32.83
2022-07-25T08:49:20.603Z,32.96
2022-07-25T08:50:25.662Z,33.38
2022-07-25T08:51:28.248Z,33.21
2022-07-25T08:52:30.249Z,33.04
2022-07-25T08:53:34.302Z,33.43
2022-07-25T08:54:37.296Z,33.46
2022-07-25T08:55:39.684Z,33.47
2022-07-25T08:56:41.453Z,33.24
2022-07-25T08:57:44.312Z,33.43
2022-07-25T08:58:46.341Z,33.14
2022-07-25T08:59:48.136Z,33.12
2022-07-25T09:00:50.092Z,33.26
2022-07-25T09:01:51.943Z,33.05
2022-07-25T09:02:56.305Z,33.09
2022-07-25T09:03:58.766Z,33.21
2022-07-25T09:05:00.568Z,33.07
2022-07-25T09:06:12.927Z,33.17
2022-07-25T09:07:14.940Z,32.98
2022-07-25T09:08:17.723Z,33.28
2022-07-25T09:09:19.822Z,33.19
2022-07-25T09:10:25.532Z,33.33
2022-07-25T09:11:37.782Z,33.04
2022-07-25T09:12:40.399Z,33.13
2022-07-25T09:13:42.458Z,33.17
2022-07-25T09:14:44.777Z,33.04
2022-07-25T09:15:55.413Z,33.20
2022-07-25T09:16:58.068Z,33.20
2022-07-25T09:18:03.395Z,33.00
2022-07-25T09:19:12.750Z,33.15
2022-07-25T09:20:18.385Z,32.99
2022-07-25T09:21:20.446Z,33.22
2022-07-25T09:22:22.805Z,32.99
2022-07-25T09:23:30.623Z,33.19
2022-07-25T09:24:33.058Z,33.07
2022-07-25T09:25:35.324Z,33.10
2022-07-25T09:26:48.595Z,33.24
2022-07-25T09:27:50.822Z,32.97
2022-07-25T09:28:54.070Z,33.17
2022-07-25T09:29:55.975Z,32.80
2022-07-25T09:31:01.241Z,33.08
2022-07-25T09:32:18.038Z,33.28
2022-07-25T09:33:20.028Z,32.86
2022-07-25T09:34:41.787Z,32.98
2022-07-25T09:35:43.723Z,33.00
2022-07-25T09:36:55.625Z,32.97
2022-07-25T09:38:11.517Z,32.93
2022-07-25T09:39:13.361Z,32.70
2022-07-25T09:40:16.176Z,33.03
2022-07-25T09:41:17.980Z,33.14
2022-07-25T09:42:22.872Z,32.93
2022-07-25T09:43:37.644Z,32.91
2022-07-25T09:44:39.708Z,33.00
2022-07-25T09:45:50.751Z,32.76
2022-07-25T09:46:52.851Z,32.66
2022-07-25T09:47:58.173Z,32.82
2022-07-25T09:49:01.170Z,32.73
2022-07-25T09:50:05.377Z,32.96
2022-07-25T09:51:07.609Z,32.47
2022-07-25T09:52:10.979Z,32.97
2022-07-25T09:53:13.384Z,32.82
2022-07-25T09:54:15.987Z,32.79
2022-07-25T09:55:18.107Z,32.96
2022-07-25T09:56:20.200Z,32.93
2022-07-25T09:57:26.439Z,32.94
2022-07-25T09:58:29.634Z,32.95
2022-07-25T09:59:34.510Z,32.72
2022-07-25T10:00:36.465Z,32.57
2022-07-25T10:01:55.215Z,32.84
2022-07-25T10:03:10.048Z,32.65
2022-07-25T10:04:37.519Z,33.03
2022-07-25T10:06:03.799Z,33.24
2022-07-25T10:07:10.893Z,32.71
2022-07-25T10:08:13.365Z,32.92
2022-07-25T10:09:16.442Z,33.22
2022-07-25T10:10:29.182Z,32.81
2022-07-25T10:11:31.550Z,32.87
2022-07-25T10:12:34.153Z,32.95
2022-07-25T10:13:38.388Z,33.19
2022-07-25T10:14:40.884Z,32.99
2022-07-25T10:15:50.051Z,32.91
2022-07-25T10:16:52.196Z,32.79
2022-07-25T10:18:04.774Z,32.79
2022-07-25T10:19:06.843Z,32.53
2022-07-25T10:20:10.423Z,33.12
2022-07-25T10:21:25.620Z,32.76
2022-07-25T10:22:55.805Z,32.71
2022-07-25T10:24:10.538Z,32.69
2022-07-25T10:25:14.737Z,32.57
2022-07-25T10:26:16.589Z,32.88
2022-07-25T10:27:23.832Z,32.70
2022-07-25T10:28:42.965Z,32.52
2022-07-25T10:29:52.676Z,32.65
2022-07-25T10:30:58.764Z,32.62
2022-07-25T10:32:12.531Z,32.55
2022-07-25T10:33:19.009Z,32.54
2022-07-25T10:34:31.825Z,32.72
2022-07-25T10:35:33.935Z,32.41
2022-07-25T10:36:52.011Z,32.72
2022-07-25T10:37:55.721Z,32.68
2022-07-25T10:38:59.737Z,32.56
2022-07-25T10:40:02.413Z,32.33
2022-07-25T10:41:04.948Z,32.26
2022-07-25T10:42:07.785Z,32.42
2022-07-25T10:43:14.306Z,32.48
2022-07-25T10:44:17.066Z,32.59
2022-07-25T10:45:18.947Z,32.58
2022-07-25T10:46:23.540Z,32.46
2022-07-25T10:47:28.249Z,32.52
2022-07-25T10:48:32.253Z,32.48
2022-07-25T10:49:50.075Z,32.46
2022-07-25T10:51:08.649Z,32.51
2022-07-25T10:52:19.118Z,32.50
2022-07-25T10:53:50.307Z,32.65
2022-07-25T10:54:55.129Z,32.22
2022-07-25T10:56:05.824Z,32.65
2022-07-25T10:57:15.695Z,32.92
2022-07-25T10:58:18.422Z,32.31
2022-07-25T10:59:31.303Z,32.26
2022-07-25T11:00:43.430Z,32.41
2022-07-25T11:01:50.977Z,32.57
2022-07-25T11:02:59.055Z,32.55
2022-07-25T11:04:03.583Z,32.17
2022-07-25T11:05:05.867Z,31.95
2022-07-25T11:06:08.008Z,32.11
2022-07-25T11:07:16.227Z,32.72
2022-07-25T11:08:22.577Z,32.42
2022-07-25T11:09:28.928Z,32.23
2022-07-25T11:10:30.737Z,32.65
2022-07-25T11:11:35.194Z,32.44
2022-07-25T11:12:37.500Z,32.19
2022-07-25T11:13:41.328Z,32.61
2022-07-25T11:14:43.584Z,32.55
2022-07-25T11:15:45.457Z,32.31
2022-07-25T11:16:50.305Z,32.05
2022-07-25T11:17:53.602Z,32.42
2022-07-25T11:18:55.583Z,32.08
2022-07-25T11:20:04.105Z,32.16
2022-07-25T11:21:08.306Z,32.27
2022-07-25T11:22:10.881Z,32.01
2022-07-25T11:23:21.411Z,32.22
2022-07-25T11:24:35.352Z,32.37
2022-07-25T11:25:37.321Z,32.35
2022-07-25T11:26:50.888Z,32.01
2022-07-25T11:27:58.361Z,32.40
2022-07-25T11:29:00.126Z,32.47
2022-07-25T11:30:15.069Z,32.25
2022-07-25T11:31:19.089Z,32.21
2022-07-25T11:32:21.091Z,32.10
2022-07-25T11:33:23.057Z,31.98
2022-07-25T11:34:29.112Z,31.94
2022-07-25T11:35:32.420Z,32.24
2022-07-25T11:36:34.634Z,32.08
2022-07-25T11:37:39.665Z,32.08
2022-07-25T11:38:41.923Z,31.77
2022-07-25T11:39:46.161Z,31.78
2022-07-25T11:40:48.489Z,32.16
2022-07-25T11:42:19.187Z,31.66
2022-07-25T11:43:23.258Z,31.69
2022-07-25T11:44:47.244Z,31.88
2022-07-25T11:46:01.681Z,31.86
2022-07-25T11:47:06.410Z,31.86
2022-07-25T11:48:10.517Z,31.60
2022-07-25T11:49:12.930Z,31.50
2022-07-25T11:50:15.565Z,31.78
2022-07-25T11:51:19.570Z,31.50
2022-07-25T11:52:27.538Z,31.83
2022-07-25T11:53:40.467Z,31.64
2022-07-25T11:54:51.809Z,31.77
2022-07-25T11:55:53.683Z,31.59
2022-07-25T11:56:55.530Z,31.53
2022-07-25T11:58:03.803Z,31.65
2022-07-25T11:59:05.997Z,31.44
2022-07-25T12:00:19.848Z,31.35
2022-07-25T12:01:21.707Z,31.70
2022-07-25T12:02:35.367Z,31.66
2022-07-25T12:03:38.695Z,31.43
2022-07-25T12:04:40.795Z,31.58
2022-07-25T12:05:43.658Z,31.58
2022-07-25T12:06:47.583Z,31.61
2022-07-25T12:07:55.276Z,31.88
2022-07-25T12:08:57.148Z,31.54
2022-07-25T12:09:58.922Z,31.69
2022-07-25T12:11:00.839Z,31.63
2022-07-25T12:12:04.515Z,31.78
2022-07-25T12:13:08.818Z,31.64
2022-07-25T12:14:12.898Z,31.71
2022-07-25T12:15:16.326Z,31.79
2022-07-25T12:16:18.404Z,31.76
2022-07-25T12:17:20.574Z,31.38
2022-07-25T12:18:22.414Z,31.50
2022-07-25T12:19:24.359Z,31.55
2022-07-25T12:20:29.379Z,31.50
2022-07-25T12:21:31.334Z,31.69
2022-07-25T12:22:33.561Z,31.40
2022-07-25T12:23:35.528Z,31.48
2022-07-25T12:24:37.359Z,31.75
2022-07-25T12:25:42.995Z,31.83
2022-07-25T12:26:44.841Z,31.39
2022-07-25T12:27:46.957Z,31.47
2022-07-25T12:28:48.740Z,31.72
2022-07-25T12:29:50.584Z,31.47
2022-07-25T12:30:56.449Z,31.71
2022-07-25T12:31:58.538Z,31.61
2022-07-25T12:33:01.635Z,31.58
2022-07-25T12:34:03.969Z,31.78
2022-07-25T12:35:07.632Z,31.51
2022-07-25T12:36:12.822Z,31.44
2022-07-25T12:37:14.748Z,31.29
2022-07-25T12:38:16.828Z,31.70
2022-07-25T12:39:18.607Z,31.69
2022-07-25T12:40:21.127Z,31.71
2022-07-25T12:41:23.670Z,31.46
2022-07-25T12:42:27.164Z,31.64
2022-07-25T12:43:28.995Z,31.66
2022-07-25T12:44:30.765Z,31.54
2022-07-25T12:45:32.807Z,31.63
2022-07-25T12:46:36.106Z,31.45
2022-07-25T12:47:38.179Z,31.45
2022-07-25T12:48:40.070Z,31.85
2022-07-25T12:49:41.943Z,31.67
2022-07-25T12:50:44.656Z,31.54
2022-07-25T12:51:46.566Z,31.70
2022-07-25T12:52:48.861Z,31.71
2022-07-25T12:53:50.655Z,31.46
2022-07-25T12:54:52.971Z,31.44
2022-07-25T12:55:54.945Z,31.35
2022-07-25T12:56:56.783Z,31.38
2022-07-25T12:57:58.731Z,31.43
2022-07-25T12:59:02.265Z,31.53
2022-07-25T13:00:07.485Z,31.71
2022-07-25T13:01:09.443Z,31.42
2022-07-25T13:02:11.323Z,31.50
2022-07-25T13:03:14.637Z,31.49
2022-07-25T13:04:16.654Z,31.55
2022-07-25T13:05:19.196Z,31.29
2022-07-25T13:06:21.064Z,31.71
2022-07-25T13:07:22.915Z,31.48
2022-07-25T13:08:24.704Z,31.52
2022-07-25T13:09:27.092Z,31.44
2022-07-25T13:10:28.855Z,31.26
2022-07-25T13:11:31.392Z,31.50
2022-07-25T13:12:33.338Z,31.61
2022-07-25T13:13:35.095Z,31.77
2022-07-25T13:14:36.912Z,31.39
2022-07-25T13:15:38.883Z,31.67
2022-07-25T13:16:40.863Z,31.78
2022-07-25T13:17:42.753Z,31.80
2022-07-25T13:18:44.644Z,31.52
2022-07-25T13:19:46.472Z,31.61
2022-07-25T13:20:48.340Z,31.36
2022-07-25T13:21:50.391Z,31.31
2022-07-25T13:22:52.187Z,31.34
2022-07-25T13:23:53.930Z,31.56
2022-07-25T13:24:56.212Z,31.54
2022-07-25T13:26:00.629Z,31.41
2022-07-25T13:27:06.063Z,31.60
2022-07-25T13:28:11.039Z,31.32
2022-07-25T13:29:13.247Z,31.73
2022-07-25T13:30:15.893Z,31.64
2022-07-25T13:31:20.171Z,31.42
2022-07-25T13:32:23.105Z,31.52
2022-07-25T13:33:24.928Z,31.60
2022-07-25T13:34:27.109Z,31.61
2022-07-25T13:35:35.107Z,31.32
2022-07-25T13:36:40.294Z,31.30
2022-07-25T13:37:42.112Z,31.56